Denby, South Dakota
Current Conditions -  °F | °C
As of 7:52 AM on Thursday 30 Oct 2014 (Local Time) from KIEN Reporting Station
Clear Clear  
Wind Chill: 32°   Ceiling: Unl
Heat Index: 32°   Visibility: 10mi
Dew Point: 27°   Wind: 0mph
Humidity: 82%   Direction: NA
Pressure: 30.27"   Gusts: NA
Location:  43.0745°N, 102.222°W
Report Text: KIEN 301352Z AUTO 00000KT 10SM CLR 00/M03 A3027 RMK AO2 SLP272 T00001028
Loading
Personal Weather Stations






























Interactive Weather Map
Tropical Storm Tracking
New forecast layout! Learn more

10-Day Weather Forecast

Advertisements
Track Severe Weather on mobile